sensor_id;sensor_type;location;lat;lon;timestamp;temperature;humidity
11963;DHT22;62678;52.130;5.584;2023-02-19T00:01:30;10.90;99.90
11963;DHT22;62678;52.130;5.584;2023-02-19T00:03:58;10.80;99.90
11963;DHT22;62678;52.130;5.584;2023-02-19T00:06:27;10.80;99.90
11963;DHT22;62678;52.130;5.584;2023-02-19T00:08:54;10.80;99.90
11963;DHT22;62678;52.130;5.584;2023-02-19T00:11:22;10.80;99.90
11963;DHT22;62678;52.130;5.584;2023-02-19T00:13:51;10.80;99.90
11963;DHT22;62678;52.130;5.584;2023-02-19T00:16:21;10.80;99.90
11963;DHT22;62678;52.130;5.584;2023-02-19T00:18:48;10.70;99.90
11963;DHT22;62678;52.130;5.584;2023-02-19T00:21:16;10.80;99.90
11963;DHT22;62678;52.130;5.584;2023-02-19T00:23:47;10.80;99.90
11963;DHT22;62678;52.130;5.584;2023-02-19T00:26:14;10.80;99.90
11963;DHT22;62678;52.130;5.584;2023-02-19T00:28:41;10.80;99.90
11963;DHT22;62678;52.130;5.584;2023-02-19T00:31:09;10.80;99.90
11963;DHT22;62678;52.130;5.584;2023-02-19T00:33:39;10.80;99.90
11963;DHT22;62678;52.130;5.584;2023-02-19T00:36:06;10.80;99.90
11963;DHT22;62678;52.130;5.584;2023-02-19T00:38:35;10.80;99.90
11963;DHT22;62678;52.130;5.584;2023-02-19T00:41:03;10.80;99.90
11963;DHT22;62678;52.130;5.584;2023-02-19T00:43:44;10.80;99.90
11963;DHT22;62678;52.130;5.584;2023-02-19T00:46:11;10.80;99.90
11963;DHT22;62678;52.130;5.584;2023-02-19T00:48:39;10.80;99.90
11963;DHT22;62678;52.130;5.584;2023-02-19T00:51:06;10.80;99.90
11963;DHT22;62678;52.130;5.584;2023-02-19T00:53:32;10.80;99.90
11963;DHT22;62678;52.130;5.584;2023-02-19T00:55:59;10.80;99.90
11963;DHT22;62678;52.130;5.584;2023-02-19T00:58:26;10.90;99.90
11963;DHT22;62678;52.130;5.584;2023-02-19T01:00:53;10.80;99.90
11963;DHT22;62678;52.130;5.584;2023-02-19T01:03:20;10.80;99.90
11963;DHT22;62678;52.130;5.584;2023-02-19T01:05:48;10.80;99.90
11963;DHT22;62678;52.130;5.584;2023-02-19T01:08:15;10.90;99.90
11963;DHT22;62678;52.130;5.584;2023-02-19T01:10:42;10.80;99.90
11963;DHT22;62678;52.130;5.584;2023-02-19T01:13:09;10.80;99.90
11963;DHT22;62678;52.130;5.584;2023-02-19T01:15:36;10.90;99.90
11963;DHT22;62678;52.130;5.584;2023-02-19T01:18:04;10.80;99.90
11963;DHT22;62678;52.130;5.584;2023-02-19T01:20:30;10.80;99.90
11963;DHT22;62678;52.130;5.584;2023-02-19T01:22:59;10.80;99.90
11963;DHT22;62678;52.130;5.584;2023-02-19T01:25:26;10.70;99.90
11963;DHT22;62678;52.130;5.584;2023-02-19T01:27:52;10.80;99.90
11963;DHT22;62678;52.130;5.584;2023-02-19T01:30:19;10.80;99.90
11963;DHT22;62678;52.130;5.584;2023-02-19T01:32:46;10.80;99.90
11963;DHT22;62678;52.130;5.584;2023-02-19T01:35:13;10.70;99.90
11963;DHT22;62678;52.130;5.584;2023-02-19T01:37:40;10.70;99.90
11963;DHT22;62678;52.130;5.584;2023-02-19T01:40:08;10.70;99.90
11963;DHT22;62678;52.130;5.584;2023-02-19T01:42:35;10.60;99.90
11963;DHT22;62678;52.130;5.584;2023-02-19T01:45:24;10.60;99.90
11963;DHT22;62678;52.130;5.584;2023-02-19T01:47:59;10.60;99.90
11963;DHT22;62678;52.130;5.584;2023-02-19T01:50:29;10.60;99.90
11963;DHT22;62678;52.130;5.584;2023-02-19T01:53:00;10.60;99.90
11963;DHT22;62678;52.130;5.584;2023-02-19T01:55:32;10.60;99.90
11963;DHT22;62678;52.130;5.584;2023-02-19T01:57:59;10.50;99.90
11963;DHT22;62678;52.130;5.584;2023-02-19T02:00:27;10.50;99.90
11963;DHT22;62678;52.130;5.584;2023-02-19T02:02:56;10.50;99.90
11963;DHT22;62678;52.130;5.584;2023-02-19T02:05:40;10.60;99.90
11963;DHT22;62678;52.130;5.584;2023-02-19T02:08:07;10.50;99.90
11963;DHT22;62678;52.130;5.584;2023-02-19T02:10:54;10.50;99.90
11963;DHT22;62678;52.130;5.584;2023-02-19T02:13:21;10.50;99.90
11963;DHT22;62678;52.130;5.584;2023-02-19T02:15:53;10.40;99.90
11963;DHT22;62678;52.130;5.584;2023-02-19T02:18:30;10.40;99.90
11963;DHT22;62678;52.130;5.584;2023-02-19T02:21:19;10.40;99.90
11963;DHT22;62678;52.130;5.584;2023-02-19T02:24:03;10.40;99.90
11963;DHT22;62678;52.130;5.584;2023-02-19T02:26:44;10.30;99.90
11963;DHT22;62678;52.130;5.584;2023-02-19T02:29:55;10.40;99.90
11963;DHT22;62678;52.130;5.584;2023-02-19T02:32:31;10.40;99.90
11963;DHT22;62678;52.130;5.584;2023-02-19T02:35:03;10.40;99.90
11963;DHT22;62678;52.130;5.584;2023-02-19T02:37:34;10.40;99.90
11963;DHT22;62678;52.130;5.584;2023-02-19T02:40:05;10.30;99.90
11963;DHT22;62678;52.130;5.584;2023-02-19T02:42:33;10.30;99.90
11963;DHT22;62678;52.130;5.584;2023-02-19T02:45:24;10.30;99.90
11963;DHT22;62678;52.130;5.584;2023-02-19T02:48:21;10.30;99.90
11963;DHT22;62678;52.130;5.584;2023-02-19T02:50:52;10.20;99.90
11963;DHT22;62678;52.130;5.584;2023-02-19T02:53:23;10.30;99.90
11963;DHT22;62678;52.130;5.584;2023-02-19T02:56:09;10.30;99.90
11963;DHT22;62678;52.130;5.584;2023-02-19T02:58:37;10.30;99.90
11963;DHT22;62678;52.130;5.584;2023-02-19T03:01:08;10.20;99.90
11963;DHT22;62678;52.130;5.584;2023-02-19T03:03:56;10.20;99.90
11963;DHT22;62678;52.130;5.584;2023-02-19T03:06:28;10.20;99.90
11963;DHT22;62678;52.130;5.584;2023-02-19T03:08:59;10.20;99.90
11963;DHT22;62678;52.130;5.584;2023-02-19T03:11:28;10.20;99.90
11963;DHT22;62678;52.130;5.584;2023-02-19T03:14:17;10.20;99.90
11963;DHT22;62678;52.130;5.584;2023-02-19T03:17:08;10.20;99.90
11963;DHT22;62678;52.130;5.584;2023-02-19T03:20:04;10.20;99.90
11963;DHT22;62678;52.130;5.584;2023-02-19T03:22:35;10.20;99.90
11963;DHT22;62678;52.130;5.584;2023-02-19T03:25:08;10.20;99.90
11963;DHT22;62678;52.130;5.584;2023-02-19T03:27:55;10.30;99.90
11963;DHT22;62678;52.130;5.584;2023-02-19T03:30:26;10.20;99.90
11963;DHT22;62678;52.130;5.584;2023-02-19T03:32:58;10.20;99.90
11963;DHT22;62678;52.130;5.584;2023-02-19T03:35:29;10.30;99.90
11963;DHT22;62678;52.130;5.584;2023-02-19T03:38:01;10.20;99.90
11963;DHT22;62678;52.130;5.584;2023-02-19T03:40:34;10.20;99.90
11963;DHT22;62678;52.130;5.584;2023-02-19T03:43:10;10.20;99.90
11963;DHT22;62678;52.130;5.584;2023-02-19T03:45:47;10.10;99.90
11963;DHT22;62678;52.130;5.584;2023-02-19T03:48:26;10.20;99.90
11963;DHT22;62678;52.130;5.584;2023-02-19T03:51:03;10.10;99.90
11963;DHT22;62678;52.130;5.584;2023-02-19T03:53:33;10.20;99.90
11963;DHT22;62678;52.130;5.584;2023-02-19T03:56:07;10.20;99.90
11963;DHT22;62678;52.130;5.584;2023-02-19T03:58:40;10.20;99.90
11963;DHT22;62678;52.130;5.584;2023-02-19T04:01:14;10.10;99.90
11963;DHT22;62678;52.130;5.584;2023-02-19T04:03:47;10.10;99.90
11963;DHT22;62678;52.130;5.584;2023-02-19T04:06:23;10.10;99.90
11963;DHT22;62678;52.130;5.584;2023-02-19T04:08:53;10.10;99.90
11963;DHT22;62678;52.130;5.584;2023-02-19T04:11:24;10.10;99.90
11963;DHT22;62678;52.130;5.584;2023-02-19T04:13:56;10.10;99.90
11963;DHT22;62678;52.130;5.584;2023-02-19T04:16:27;10.10;99.90
11963;DHT22;62678;52.130;5.584;2023-02-19T04:18:58;10.20;99.90
11963;DHT22;62678;52.130;5.584;2023-02-19T04:21:30;10.10;99.90
11963;DHT22;62678;52.130;5.584;2023-02-19T04:24:01;10.10;99.90
11963;DHT22;62678;52.130;5.584;2023-02-19T04:26:29;10.10;99.90
11963;DHT22;62678;52.130;5.584;2023-02-19T04:28:58;10.10;99.90
11963;DHT22;62678;52.130;5.584;2023-02-19T04:31:26;10.10;99.90
11963;DHT22;62678;52.130;5.584;2023-02-19T04:33:53;10.00;99.90
11963;DHT22;62678;52.130;5.584;2023-02-19T04:36:21;10.00;99.90
11963;DHT22;62678;52.130;5.584;2023-02-19T04:38:48;10.00;99.90
11963;DHT22;62678;52.130;5.584;2023-02-19T04:41:15;10.00;99.90
11963;DHT22;62678;52.130;5.584;2023-02-19T04:43:42;10.00;99.90
11963;DHT22;62678;52.130;5.584;2023-02-19T04:46:08;10.00;99.90
11963;DHT22;62678;52.130;5.584;2023-02-19T04:48:35;9.90;99.90
11963;DHT22;62678;52.130;5.584;2023-02-19T04:51:04;9.90;99.90
11963;DHT22;62678;52.130;5.584;2023-02-19T04:53:33;10.00;99.90
11963;DHT22;62678;52.130;5.584;2023-02-19T04:56:05;10.00;99.90
11963;DHT22;62678;52.130;5.584;2023-02-19T04:58:32;10.00;99.90
11963;DHT22;62678;52.130;5.584;2023-02-19T05:00:59;10.00;99.90
11963;DHT22;62678;52.130;5.584;2023-02-19T05:03:26;10.00;99.90
11963;DHT22;62678;52.130;5.584;2023-02-19T05:05:53;10.00;99.90
11963;DHT22;62678;52.130;5.584;2023-02-19T05:08:19;10.00;99.90
11963;DHT22;62678;52.130;5.584;2023-02-19T05:10:48;10.00;99.90
11963;DHT22;62678;52.130;5.584;2023-02-19T05:13:14;10.00;99.90
11963;DHT22;62678;52.130;5.584;2023-02-19T05:15:41;10.00;99.90
11963;DHT22;62678;52.130;5.584;2023-02-19T05:18:08;10.00;99.90
11963;DHT22;62678;52.130;5.584;2023-02-19T05:20:35;10.00;99.90
11963;DHT22;62678;52.130;5.584;2023-02-19T05:23:02;10.00;99.90
11963;DHT22;62678;52.130;5.584;2023-02-19T05:25:29;10.10;99.90
11963;DHT22;62678;52.130;5.584;2023-02-19T05:27:57;10.00;99.90
11963;DHT22;62678;52.130;5.584;2023-02-19T05:30:38;10.00;99.90
11963;DHT22;62678;52.130;5.584;2023-02-19T05:33:05;10.00;99.90
11963;DHT22;62678;52.130;5.584;2023-02-19T05:35:31;10.00;99.90
11963;DHT22;62678;52.130;5.584;2023-02-19T05:37:58;10.00;99.90
11963;DHT22;62678;52.130;5.584;2023-02-19T05:40:25;10.00;99.90
11963;DHT22;62678;52.130;5.584;2023-02-19T05:42:52;9.90;99.90
11963;DHT22;62678;52.130;5.584;2023-02-19T05:45:20;9.90;99.90
11963;DHT22;62678;52.130;5.584;2023-02-19T05:47:47;9.90;99.90
11963;DHT22;62678;52.130;5.584;2023-02-19T05:50:14;9.90;99.90
11963;DHT22;62678;52.130;5.584;2023-02-19T05:52:40;9.90;99.90
11963;DHT22;62678;52.130;5.584;2023-02-19T05:55:08;9.90;99.90
11963;DHT22;62678;52.130;5.584;2023-02-19T05:57:39;9.90;99.90
11963;DHT22;62678;52.130;5.584;2023-02-19T06:00:07;9.80;99.90
11963;DHT22;62678;52.130;5.584;2023-02-19T06:02:37;9.80;99.90
11963;DHT22;62678;52.130;5.584;2023-02-19T06:05:04;9.80;99.90
11963;DHT22;62678;52.130;5.584;2023-02-19T06:07:31;9.90;99.90
11963;DHT22;62678;52.130;5.584;2023-02-19T06:09:58;9.90;99.90
11963;DHT22;62678;52.130;5.584;2023-02-19T06:12:25;10.00;99.90
11963;DHT22;62678;52.130;5.584;2023-02-19T06:14:52;9.90;99.90
11963;DHT22;62678;52.130;5.584;2023-02-19T06:17:19;9.90;99.90
11963;DHT22;62678;52.130;5.584;2023-02-19T06:19:47;9.90;99.90
11963;DHT22;62678;52.130;5.584;2023-02-19T06:22:14;9.90;99.90
11963;DHT22;62678;52.130;5.584;2023-02-19T06:24:41;9.80;99.90
11963;DHT22;62678;52.130;5.584;2023-02-19T06:27:09;9.90;99.90
11963;DHT22;62678;52.130;5.584;2023-02-19T06:29:35;9.90;99.90
11963;DHT22;62678;52.130;5.584;2023-02-19T06:32:03;9.80;99.90
11963;DHT22;62678;52.130;5.584;2023-02-19T06:34:30;9.80;99.90
11963;DHT22;62678;52.130;5.584;2023-02-19T06:36:58;9.80;99.90
11963;DHT22;62678;52.130;5.584;2023-02-19T06:39:25;9.90;99.90
11963;DHT22;62678;52.130;5.584;2023-02-19T06:41:54;9.80;99.90
11963;DHT22;62678;52.130;5.584;2023-02-19T06:44:20;9.70;99.90
11963;DHT22;62678;52.130;5.584;2023-02-19T06:46:47;9.80;99.90
11963;DHT22;62678;52.130;5.584;2023-02-19T06:49:14;9.80;99.90
11963;DHT22;62678;52.130;5.584;2023-02-19T06:51:41;9.80;99.90
11963;DHT22;62678;52.130;5.584;2023-02-19T06:54:09;9.80;99.90
11963;DHT22;62678;52.130;5.584;2023-02-19T06:56:37;9.80;99.90
11963;DHT22;62678;52.130;5.584;2023-02-19T06:59:06;9.80;99.90
11963;DHT22;62678;52.130;5.584;2023-02-19T07:01:35;9.80;99.90
11963;DHT22;62678;52.130;5.584;2023-02-19T07:04:02;9.80;99.90
11963;DHT22;62678;52.130;5.584;2023-02-19T07:06:30;9.80;99.90
11963;DHT22;62678;52.130;5.584;2023-02-19T07:08:58;9.70;99.90
11963;DHT22;62678;52.130;5.584;2023-02-19T07:11:29;9.70;99.90
11963;DHT22;62678;52.130;5.584;2023-02-19T07:13:58;9.70;99.90
11963;DHT22;62678;52.130;5.584;2023-02-19T07:16:26;9.70;99.90
11963;DHT22;62678;52.130;5.584;2023-02-19T07:18:55;9.70;99.90
11963;DHT22;62678;52.130;5.584;2023-02-19T07:21:22;9.70;99.90
11963;DHT22;62678;52.130;5.584;2023-02-19T07:23:49;9.70;99.90
11963;DHT22;62678;52.130;5.584;2023-02-19T07:26:17;9.70;99.90
11963;DHT22;62678;52.130;5.584;2023-02-19T07:28:47;9.70;99.90
11963;DHT22;62678;52.130;5.584;2023-02-19T07:31:16;9.70;99.90
11963;DHT22;62678;52.130;5.584;2023-02-19T07:33:43;9.80;99.90
11963;DHT22;62678;52.130;5.584;2023-02-19T07:36:11;9.80;99.90
11963;DHT22;62678;52.130;5.584;2023-02-19T07:38:39;9.80;99.90
11963;DHT22;62678;52.130;5.584;2023-02-19T07:41:06;9.80;99.90
11963;DHT22;62678;52.130;5.584;2023-02-19T07:43:34;9.90;99.90
11963;DHT22;62678;52.130;5.584;2023-02-19T07:46:04;9.90;99.90
11963;DHT22;62678;52.130;5.584;2023-02-19T07:48:31;9.90;99.90
11963;DHT22;62678;52.130;5.584;2023-02-19T07:50:59;9.80;99.90
11963;DHT22;62678;52.130;5.584;2023-02-19T07:53:27;9.90;99.90
11963;DHT22;62678;52.130;5.584;2023-02-19T07:55:58;9.90;99.90
11963;DHT22;62678;52.130;5.584;2023-02-19T07:58:26;9.90;99.90
11963;DHT22;62678;52.130;5.584;2023-02-19T08:00:53;9.90;99.90
11963;DHT22;62678;52.130;5.584;2023-02-19T08:03:21;9.90;99.90
11963;DHT22;62678;52.130;5.584;2023-02-19T08:05:48;9.90;99.90
11963;DHT22;62678;52.130;5.584;2023-02-19T08:08:18;9.80;99.90
11963;DHT22;62678;52.130;5.584;2023-02-19T08:10:45;9.80;99.90
11963;DHT22;62678;52.130;5.584;2023-02-19T08:13:29;9.80;99.90
11963;DHT22;62678;52.130;5.584;2023-02-19T08:16:10;9.80;99.90
11963;DHT22;62678;52.130;5.584;2023-02-19T08:18:39;9.80;99.90
11963;DHT22;62678;52.130;5.584;2023-02-19T08:21:06;9.80;99.90
11963;DHT22;62678;52.130;5.584;2023-02-19T08:23:32;9.80;99.90
11963;DHT22;62678;52.130;5.584;2023-02-19T08:26:00;9.80;99.90
11963;DHT22;62678;52.130;5.584;2023-02-19T08:28:28;9.90;99.90
11963;DHT22;62678;52.130;5.584;2023-02-19T08:30:58;9.90;99.90
11963;DHT22;62678;52.130;5.584;2023-02-19T08:33:26;9.90;99.90
11963;DHT22;62678;52.130;5.584;2023-02-19T08:35:55;9.90;99.90
11963;DHT22;62678;52.130;5.584;2023-02-19T08:38:22;9.80;99.90
11963;DHT22;62678;52.130;5.584;2023-02-19T08:40:49;9.80;99.90
11963;DHT22;62678;52.130;5.584;2023-02-19T08:43:17;9.90;99.90
11963;DHT22;62678;52.130;5.584;2023-02-19T08:45:45;9.90;99.90
11963;DHT22;62678;52.130;5.584;2023-02-19T08:48:13;9.90;99.90
11963;DHT22;62678;52.130;5.584;2023-02-19T08:50:40;9.80;99.90
11963;DHT22;62678;52.130;5.584;2023-02-19T08:53:09;9.90;99.90
11963;DHT22;62678;52.130;5.584;2023-02-19T08:55:37;9.90;99.90
11963;DHT22;62678;52.130;5.584;2023-02-19T08:58:04;9.90;99.90
11963;DHT22;62678;52.130;5.584;2023-02-19T09:00:31;9.80;99.90
11963;DHT22;62678;52.130;5.584;2023-02-19T09:02:58;9.90;99.90
11963;DHT22;62678;52.130;5.584;2023-02-19T09:05:26;9.90;99.90
11963;DHT22;62678;52.130;5.584;2023-02-19T09:07:53;9.90;99.90
11963;DHT22;62678;52.130;5.584;2023-02-19T09:10:21;10.00;99.90
11963;DHT22;62678;52.130;5.584;2023-02-19T09:12:49;10.00;99.90
11963;DHT22;62678;52.130;5.584;2023-02-19T09:15:16;10.00;99.90
11963;DHT22;62678;52.130;5.584;2023-02-19T09:17:43;10.00;99.90
11963;DHT22;62678;52.130;5.584;2023-02-19T09:20:12;9.90;99.90
11963;DHT22;62678;52.130;5.584;2023-02-19T09:22:39;10.00;99.90
11963;DHT22;62678;52.130;5.584;2023-02-19T09:25:07;10.00;99.90
11963;DHT22;62678;52.130;5.584;2023-02-19T09:27:36;10.00;99.90
11963;DHT22;62678;52.130;5.584;2023-02-19T09:30:04;9.90;99.90
11963;DHT22;62678;52.130;5.584;2023-02-19T09:32:31;9.90;99.90
11963;DHT22;62678;52.130;5.584;2023-02-19T09:34:58;9.90;99.90
11963;DHT22;62678;52.130;5.584;2023-02-19T09:37:25;9.90;99.90
11963;DHT22;62678;52.130;5.584;2023-02-19T09:39:53;10.00;99.90
11963;DHT22;62678;52.130;5.584;2023-02-19T09:42:22;9.90;99.90
11963;DHT22;62678;52.130;5.584;2023-02-19T09:44:54;9.80;99.90
11963;DHT22;62678;52.130;5.584;2023-02-19T09:47:25;9.80;99.90
11963;DHT22;62678;52.130;5.584;2023-02-19T09:49:54;9.90;99.90
11963;DHT22;62678;52.130;5.584;2023-02-19T09:52:28;9.90;99.90
11963;DHT22;62678;52.130;5.584;2023-02-19T09:55:00;10.00;99.90
11963;DHT22;62678;52.130;5.584;2023-02-19T09:57:31;10.00;99.90
11963;DHT22;62678;52.130;5.584;2023-02-19T10:00:04;9.90;99.90
11963;DHT22;62678;52.130;5.584;2023-02-19T10:02:32;9.70;99.90
11963;DHT22;62678;52.130;5.584;2023-02-19T10:04:59;9.60;99.90
11963;DHT22;62678;52.130;5.584;2023-02-19T10:07:39;9.60;99.90
11963;DHT22;62678;52.130;5.584;2023-02-19T10:10:23;9.70;99.90
11963;DHT22;62678;52.130;5.584;2023-02-19T10:12:53;9.60;99.90
11963;DHT22;62678;52.130;5.584;2023-02-19T10:15:28;9.50;99.90
11963;DHT22;62678;52.130;5.584;2023-02-19T10:17:56;9.50;99.90
11963;DHT22;62678;52.130;5.584;2023-02-19T10:20:24;9.50;99.90
11963;DHT22;62678;52.130;5.584;2023-02-19T10:22:58;9.40;99.90
11963;DHT22;62678;52.130;5.584;2023-02-19T10:25:26;9.40;99.90
11963;DHT22;62678;52.130;5.584;2023-02-19T10:27:53;9.40;99.90
11963;DHT22;62678;52.130;5.584;2023-02-19T10:30:24;9.40;99.90
11963;DHT22;62678;52.130;5.584;2023-02-19T10:32:59;9.50;99.90
11963;DHT22;62678;52.130;5.584;2023-02-19T10:35:27;9.40;99.90
11963;DHT22;62678;52.130;5.584;2023-02-19T10:37:55;9.40;99.90
11963;DHT22;62678;52.130;5.584;2023-02-19T10:40:24;9.40;99.90
11963;DHT22;62678;52.130;5.584;2023-02-19T10:42:55;9.50;99.90
11963;DHT22;62678;52.130;5.584;2023-02-19T10:45:29;9.40;99.90
11963;DHT22;62678;52.130;5.584;2023-02-19T10:48:00;9.40;99.90
11963;DHT22;62678;52.130;5.584;2023-02-19T10:50:30;9.50;99.90
11963;DHT22;62678;52.130;5.584;2023-02-19T10:52:59;9.40;99.90
11963;DHT22;62678;52.130;5.584;2023-02-19T10:55:31;9.50;99.90
11963;DHT22;62678;52.130;5.584;2023-02-19T10:58:21;9.40;99.90
11963;DHT22;62678;52.130;5.584;2023-02-19T11:01:09;9.60;99.90
11963;DHT22;62678;52.130;5.584;2023-02-19T11:03:36;9.70;99.90
11963;DHT22;62678;52.130;5.584;2023-02-19T11:06:05;9.80;99.90
11963;DHT22;62678;52.130;5.584;2023-02-19T11:08:44;9.90;99.90
11963;DHT22;62678;52.130;5.584;2023-02-19T11:11:25;9.80;99.90
11963;DHT22;62678;52.130;5.584;2023-02-19T11:13:55;9.80;99.90
11963;DHT22;62678;52.130;5.584;2023-02-19T11:16:40;9.70;99.90
11963;DHT22;62678;52.130;5.584;2023-02-19T11:19:25;9.70;99.90
11963;DHT22;62678;52.130;5.584;2023-02-19T11:21:53;9.70;99.90
11963;DHT22;62678;52.130;5.584;2023-02-19T11:24:30;9.70;99.90
11963;DHT22;62678;52.130;5.584;2023-02-19T11:27:01;9.70;99.90
11963;DHT22;62678;52.130;5.584;2023-02-19T11:29:29;9.80;99.90
11963;DHT22;62678;52.130;5.584;2023-02-19T11:32:22;9.80;99.90
11963;DHT22;62678;52.130;5.584;2023-02-19T11:34:50;9.80;99.90
11963;DHT22;62678;52.130;5.584;2023-02-19T11:37:19;9.80;99.90
11963;DHT22;62678;52.130;5.584;2023-02-19T11:39:48;9.70;99.90
11963;DHT22;62678;52.130;5.584;2023-02-19T11:42:37;9.70;99.90
11963;DHT22;62678;52.130;5.584;2023-02-19T11:45:21;9.80;99.90
11963;DHT22;62678;52.130;5.584;2023-02-19T11:48:12;9.60;99.90
11963;DHT22;62678;52.130;5.584;2023-02-19T11:50:51;9.60;99.90
11963;DHT22;62678;52.130;5.584;2023-02-19T11:53:25;9.50;99.90
11963;DHT22;62678;52.130;5.584;2023-02-19T11:56:05;9.40;99.90
11963;DHT22;62678;52.130;5.584;2023-02-19T11:58:59;9.30;99.90
11963;DHT22;62678;52.130;5.584;2023-02-19T12:07:50;9.20;99.90
11963;DHT22;62678;52.130;5.584;2023-02-19T12:10:22;9.30;99.90
11963;DHT22;62678;52.130;5.584;2023-02-19T12:12:58;9.40;99.90
11963;DHT22;62678;52.130;5.584;2023-02-19T12:15:52;9.50;99.90
11963;DHT22;62678;52.130;5.584;2023-02-19T12:18:35;9.60;99.90
11963;DHT22;62678;52.130;5.584;2023-02-19T12:21:18;9.60;99.90
11963;DHT22;62678;52.130;5.584;2023-02-19T12:24:23;9.60;99.90
11963;DHT22;62678;52.130;5.584;2023-02-19T12:27:08;9.60;99.90
11963;DHT22;62678;52.130;5.584;2023-02-19T12:30:02;9.60;99.90
11963;DHT22;62678;52.130;5.584;2023-02-19T12:35:49;9.60;99.90
11963;DHT22;62678;52.130;5.584;2023-02-19T12:38:29;9.60;99.90
11963;DHT22;62678;52.130;5.584;2023-02-19T12:41:14;9.70;99.90
11963;DHT22;62678;52.130;5.584;2023-02-19T12:43:46;9.60;99.90
11963;DHT22;62678;52.130;5.584;2023-02-19T12:46:19;9.40;99.90
11963;DHT22;62678;52.130;5.584;2023-02-19T12:48:52;9.20;99.90
11963;DHT22;62678;52.130;5.584;2023-02-19T12:51:26;9.10;99.90
11963;DHT22;62678;52.130;5.584;2023-02-19T12:53:59;9.00;99.90
11963;DHT22;62678;52.130;5.584;2023-02-19T12:56:29;9.00;99.90
11963;DHT22;62678;52.130;5.584;2023-02-19T12:59:00;8.80;99.90
11963;DHT22;62678;52.130;5.584;2023-02-19T13:01:32;8.80;99.90
11963;DHT22;62678;52.130;5.584;2023-02-19T13:04:16;8.70;99.90
11963;DHT22;62678;52.130;5.584;2023-02-19T13:06:48;8.60;99.90
11963;DHT22;62678;52.130;5.584;2023-02-19T13:09:23;8.50;99.90
11963;DHT22;62678;52.130;5.584;2023-02-19T13:11:57;8.50;99.90
11963;DHT22;62678;52.130;5.584;2023-02-19T13:14:29;8.50;99.90
11963;DHT22;62678;52.130;5.584;2023-02-19T13:17:02;8.40;99.90
11963;DHT22;62678;52.130;5.584;2023-02-19T13:19:31;8.50;99.90
11963;DHT22;62678;52.130;5.584;2023-02-19T13:22:14;8.60;99.90
11963;DHT22;62678;52.130;5.584;2023-02-19T13:25:04;8.70;99.90
11963;DHT22;62678;52.130;5.584;2023-02-19T13:28:01;8.60;99.90
11963;DHT22;62678;52.130;5.584;2023-02-19T13:30:40;8.60;99.90
11963;DHT22;62678;52.130;5.584;2023-02-19T13:33:29;8.50;99.90
11963;DHT22;62678;52.130;5.584;2023-02-19T13:36:09;8.40;99.90
11963;DHT22;62678;52.130;5.584;2023-02-19T13:38:40;8.30;99.90
11963;DHT22;62678;52.130;5.584;2023-02-19T13:41:19;8.30;99.90
11963;DHT22;62678;52.130;5.584;2023-02-19T13:43:54;8.40;99.90
11963;DHT22;62678;52.130;5.584;2023-02-19T13:46:22;8.50;99.90
11963;DHT22;62678;52.130;5.584;2023-02-19T13:51:50;8.70;99.90
11963;DHT22;62678;52.130;5.584;2023-02-19T13:54:23;8.60;99.90
11963;DHT22;62678;52.130;5.584;2023-02-19T13:57:25;8.60;99.90
11963;DHT22;62678;52.130;5.584;2023-02-19T13:59:53;8.70;99.90
11963;DHT22;62678;52.130;5.584;2023-02-19T14:02:28;8.70;99.90
11963;DHT22;62678;52.130;5.584;2023-02-19T14:04:57;8.70;99.90
11963;DHT22;62678;52.130;5.584;2023-02-19T14:07:51;8.70;99.90
11963;DHT22;62678;52.130;5.584;2023-02-19T14:13:59;8.80;99.90
11963;DHT22;62678;52.130;5.584;2023-02-19T14:16:58;8.90;99.90
11963;DHT22;62678;52.130;5.584;2023-02-19T14:19:55;8.90;99.90
11963;DHT22;62678;52.130;5.584;2023-02-19T14:25:39;9.00;99.90
11963;DHT22;62678;52.130;5.584;2023-02-19T14:28:20;8.90;99.90
11963;DHT22;62678;52.130;5.584;2023-02-19T14:30:52;8.90;99.90
11963;DHT22;62678;52.130;5.584;2023-02-19T14:33:22;8.90;99.90
11963;DHT22;62678;52.130;5.584;2023-02-19T14:35:53;8.90;99.90
11963;DHT22;62678;52.130;5.584;2023-02-19T14:38:25;9.00;99.90
11963;DHT22;62678;52.130;5.584;2023-02-19T14:40:54;9.10;99.90
11963;DHT22;62678;52.130;5.584;2023-02-19T14:43:24;9.00;99.90
11963;DHT22;62678;52.130;5.584;2023-02-19T14:45:55;9.10;99.90
11963;DHT22;62678;52.130;5.584;2023-02-19T14:48:25;9.10;99.90
11963;DHT22;62678;52.130;5.584;2023-02-19T14:50:57;9.10;99.90
11963;DHT22;62678;52.130;5.584;2023-02-19T14:53:29;9.20;99.90
11963;DHT22;62678;52.130;5.584;2023-02-19T14:55:59;9.10;99.90
11963;DHT22;62678;52.130;5.584;2023-02-19T14:58:30;9.30;99.90
11963;DHT22;62678;52.130;5.584;2023-02-19T15:00:59;9.20;99.90
11963;DHT22;62678;52.130;5.584;2023-02-19T15:03:29;9.00;99.90
11963;DHT22;62678;52.130;5.584;2023-02-19T15:06:03;9.00;99.90
11963;DHT22;62678;52.130;5.584;2023-02-19T15:08:37;9.00;99.90
11963;DHT22;62678;52.130;5.584;2023-02-19T15:11:09;9.10;99.90
11963;DHT22;62678;52.130;5.584;2023-02-19T15:13:39;9.10;99.90
11963;DHT22;62678;52.130;5.584;2023-02-19T15:16:16;9.10;99.90
11963;DHT22;62678;52.130;5.584;2023-02-19T15:18:45;9.20;99.90
11963;DHT22;62678;52.130;5.584;2023-02-19T15:21:21;9.00;99.90
11963;DHT22;62678;52.130;5.584;2023-02-19T15:23:50;9.00;99.90
11963;DHT22;62678;52.130;5.584;2023-02-19T15:26:20;9.10;99.90
11963;DHT22;62678;52.130;5.584;2023-02-19T15:28:56;9.00;99.90
11963;DHT22;62678;52.130;5.584;2023-02-19T15:31:26;9.00;99.90
11963;DHT22;62678;52.130;5.584;2023-02-19T15:33:54;9.00;99.90
11963;DHT22;62678;52.130;5.584;2023-02-19T15:36:27;9.00;99.90
11963;DHT22;62678;52.130;5.584;2023-02-19T15:38:58;8.90;99.90
11963;DHT22;62678;52.130;5.584;2023-02-19T15:41:29;8.90;99.90
11963;DHT22;62678;52.130;5.584;2023-02-19T15:44:09;8.80;99.90
11963;DHT22;62678;52.130;5.584;2023-02-19T15:46:42;8.70;99.90
11963;DHT22;62678;52.130;5.584;2023-02-19T15:49:14;8.60;99.90
11963;DHT22;62678;52.130;5.584;2023-02-19T15:51:47;8.50;99.90
11963;DHT22;62678;52.130;5.584;2023-02-19T15:54:21;8.60;99.90
11963;DHT22;62678;52.130;5.584;2023-02-19T15:56:51;8.60;99.90
11963;DHT22;62678;52.130;5.584;2023-02-19T15:59:23;8.50;99.90
11963;DHT22;62678;52.130;5.584;2023-02-19T16:01:53;8.30;99.90
11963;DHT22;62678;52.130;5.584;2023-02-19T16:04:23;8.30;99.90
11963;DHT22;62678;52.130;5.584;2023-02-19T16:06:53;8.20;99.90
11963;DHT22;62678;52.130;5.584;2023-02-19T16:09:22;8.10;99.90
11963;DHT22;62678;52.130;5.584;2023-02-19T16:11:50;8.00;99.90
11963;DHT22;62678;52.130;5.584;2023-02-19T16:14:23;7.80;99.90
11963;DHT22;62678;52.130;5.584;2023-02-19T16:16:53;7.80;99.90
11963;DHT22;62678;52.130;5.584;2023-02-19T16:19:25;7.70;99.90
11963;DHT22;62678;52.130;5.584;2023-02-19T16:21:53;7.80;99.90
11963;DHT22;62678;52.130;5.584;2023-02-19T16:24:26;7.80;99.90
11963;DHT22;62678;52.130;5.584;2023-02-19T16:26:54;7.90;99.90
11963;DHT22;62678;52.130;5.584;2023-02-19T16:29:23;7.80;99.90